Time;durP1;ratioP1;P1;durP2;ratioP2;P2;SDS_P1;SDS_P2;PMS_P1;PMS_P2;Temp;Humidity;BMP_temperature;BMP_pressure;BME280_temperature;BME280_humidity;BME280_pressure;Samples;Min_cycle;Max_cycle;Signal;HPM_P1;HPM_P2
2021/07/21 00:02:20;;;;;;;;;;;;;;;-148.22;100.00;58358.63;4975253;28;1326;-87
2021/07/21 00:04:57;;;;;;;;;;;;;;;-148.22;100.00;58358.63;4975266;28;1316;-87
2021/07/21 00:07:39;;;;;;;;;;;;;;;-148.22;100.00;58358.63;4975214;28;997;-88
2021/07/21 00:10:31;;;;;;;;;;;;;;;-148.22;100.00;58358.63;4953275;29;1957;-89
2021/07/21 00:16:14;;;;;;;;;;;;;;;-148.22;100.00;58358.63;4975177;28;660;-89
2021/07/21 00:21:54;;;;;;;;;;;;;;;-148.22;100.00;58358.63;4994397;28;649;-89
2021/07/21 00:27:42;;;;;;;;;;;;;;;-148.22;100.00;58358.63;5053761;28;676;-88
2021/07/21 00:30:22;;;;;;;;;;;;;;;-148.22;100.00;58358.63;5036815;28;1914;-88
2021/07/21 00:32:47;;;;;;;;;;;;;;;-148.22;100.00;58358.63;5037162;28;1204;-88
2021/07/21 00:38:22;;;;;;;;;;;;;;;-148.22;100.00;58358.63;5054132;28;930;-88
2021/07/21 00:43:50;;;;;;;;;;;;;;;-148.22;100.00;58358.63;5055596;28;574;-89
2021/07/21 00:46:53;;;;;;;;;;;;;;;-148.22;100.00;58358.63;5054351;28;1307;-89
2021/07/21 00:49:52;;;;;;;;;;;;;;;-148.22;100.00;58358.63;5033540;28;1886;-89
2021/07/21 00:52:46;;;;;;;;;;;;;;;-148.22;100.00;58358.63;5016967;28;1176;-88
2021/07/21 00:58:45;;;;;;;;;;;;;;;-148.22;100.00;58358.63;5033403;28;1041;-89
2021/07/21 01:07:32;;;;;;;;;;;;;;;-148.22;100.00;58358.63;5033642;28;649;-89
2021/07/21 01:10:02;;;;;;;;;;;;;;;-148.22;100.00;58358.63;5033351;28;1973;-88
2021/07/21 01:12:32;;;;;;;;;;;;;;;-148.22;100.00;58358.63;5033267;28;1206;-88
2021/07/21 01:18:22;;;;;;;;;;;;;;;-148.22;100.00;58358.63;5013461;28;1105;-89
2021/07/21 01:21:22;;;;;;;;;;;;;;;-148.22;100.00;58358.63;5016540;28;1158;-90
2021/07/21 01:27:10;;;;;;;;;;;;;;;-148.22;100.00;58358.63;5036977;28;664;-87
2021/07/21 01:29:55;;;;;;;;;;;;;;;-148.22;100.00;58358.63;5020395;28;1903;-89
2021/07/21 01:32:31;;;;;;;;;;;;;;;-148.22;100.00;58358.63;5019903;28;1276;-88
2021/07/21 01:35:07;;;;;;;;;;;;;;;-148.22;100.00;58358.63;5020182;28;1270;-89
2021/07/21 01:37:51;;;;;;;;;;;;;;;-148.22;100.00;58358.63;5020058;28;1187;-88
2021/07/21 01:40:54;;;;;;;;;;;;;;;-148.22;100.00;58358.63;5020114;28;1188;-88
2021/07/21 01:43:24;;;;;;;;;;;;;;;-148.22;100.00;58358.63;5019998;28;1181;-89
2021/07/21 01:46:22;;;;;;;;;;;;;;;-148.22;100.00;58358.63;5036749;28;1172;-89
2021/07/21 01:49:22;;;;;;;;;;;;;;;-148.22;100.00;58358.63;5019787;28;1307;-89
2021/07/21 01:52:20;;;;;;;;;;;;;;;-148.22;100.00;58358.63;5019804;28;1188;-89
2021/07/21 01:55:14;;;;;;;;;;;;;;;-148.22;100.00;58358.63;5039528;28;1200;-89
2021/07/21 01:58:10;;;;;;;;;;;;;;;-148.22;100.00;58358.63;5019730;28;1390;-89
2021/07/21 02:01:04;;;;;;;;;;;;;;;-148.22;100.00;58358.63;4938897;29;1349;-88
2021/07/21 02:03:44;;;;;;;;;;;;;;;-148.22;100.00;58358.63;4938936;29;1202;-88
2021/07/21 02:06:38;;;;;;;;;;;;;;;-148.22;100.00;58358.63;4938751;29;1284;-89
2021/07/21 02:09:14;;;;;;;;;;;;;;;-148.22;100.00;58358.63;4938544;29;1198;-89
2021/07/21 02:11:39;;;;;;;;;;;;;;;-148.22;100.00;58358.63;4930318;29;1309;-88
2021/07/21 02:14:05;;;;;;;;;;;;;;;-148.22;100.00;58358.63;4938657;29;1233;-88
2021/07/21 02:16:49;;;;;;;;;;;;;;;-148.22;100.00;58358.63;4938530;29;1267;-89
2021/07/21 02:22:28;;;;;;;;;;;;;;;-148.22;100.00;58358.63;4938574;29;1100;-90
2021/07/21 02:25:02;;;;;;;;;;;;;;;-148.22;100.00;58358.63;4938631;29;1299;-89
2021/07/21 02:27:45;;;;;;;;;;;;;;;-148.22;100.00;58358.63;4938147;29;1173;-86
2021/07/21 02:30:23;;;;;;;;;;;;;;;-148.22;100.00;58358.63;4938063;29;2079;-88
2021/07/21 02:33:22;;;;;;;;;;;;;;;-148.22;100.00;58358.63;4938517;29;1220;-88
2021/07/21 02:35:50;;;;;;;;;;;;;;;-148.22;100.00;58358.63;4941566;28;1165;-88
2021/07/21 02:44:22;;;;;;;;;;;;;;;-148.22;100.00;58358.63;5057285;28;1174;-89
2021/07/21 02:46:57;;;;;;;;;;;;;;;-148.22;100.00;58358.63;5055937;28;1273;-89
2021/07/21 02:49:33;;;;;;;;;;;;;;;-148.22;100.00;58358.63;5056035;28;1894;-90
2021/07/21 02:55:55;;;;;;;;;;;;;;;-148.22;100.00;58358.63;5015395;28;1027;-88
2021/07/21 03:01:32;;;;;;;;;;;;;;;-148.22;100.00;58358.63;4995712;28;610;-89
2021/07/21 03:13:20;;;;;;;;;;;;;;;-148.22;100.00;58358.63;4995164;28;1092;-88
2021/07/21 03:15:55;;;;;;;;;;;;;;;-148.22;100.00;58358.63;4995340;28;1193;-88
2021/07/21 03:18:47;;;;;;;;;;;;;;;-148.22;100.00;58358.63;4995274;28;1166;-89
2021/07/21 03:27:52;;;;;;;;;;;;;;;-148.22;100.00;58358.63;4995361;28;606;-88
2021/07/21 03:30:19;;;;;;;;;;;;;;;-148.22;100.00;58358.63;5018218;28;1914;-89
2021/07/21 03:33:24;;;;;;;;;;;;;;;-148.22;100.00;58358.63;5037187;28;1342;-89
2021/07/21 03:36:07;;;;;;;;;;;;;;;-148.22;100.00;58358.63;5055077;28;1175;-89
2021/07/21 03:38:33;;;;;;;;;;;;;;;-148.22;100.00;58358.63;5055240;28;1202;-88
2021/07/21 03:40:59;;;;;;;;;;;;;;;-148.22;100.00;58358.63;5055061;28;1269;-89
2021/07/21 03:43:26;;;;;;;;;;;;;;;-148.22;100.00;58358.63;5054560;28;1268;-88
2021/07/21 03:45:51;;;;;;;;;;;;;;;-148.22;100.00;58358.63;5056111;28;1055;-89
2021/07/21 03:48:17;;;;;;;;;;;;;;;-148.22;100.00;58358.63;5055086;28;1202;-90
2021/07/21 03:50:59;;;;;;;;;;;;;;;-148.22;100.00;58358.63;5054776;28;1890;-90
2021/07/21 03:53:40;;;;;;;;;;;;;;;-148.22;100.00;58358.63;5054834;28;1187;-89
2021/07/21 03:56:07;;;;;;;;;;;;;;;-148.22;100.00;58358.63;5054771;28;1253;-88
2021/07/21 03:58:53;;;;;;;;;;;;;;;-148.22;100.00;58358.63;5054792;28;1272;-89
2021/07/21 04:04:56;;;;;;;;;;;;;;;-148.22;100.00;58358.63;5055933;28;612;-90
2021/07/21 04:07:58;;;;;;;;;;;;;;;-148.22;100.00;58358.63;5033774;28;1373;-89
2021/07/21 04:10:52;;;;;;;;;;;;;;;-148.22;100.00;58358.63;5033663;28;1961;-89
2021/07/21 04:13:18;;;;;;;;;;;;;;;-148.22;100.00;58358.63;5033842;28;1299;-89
2021/07/21 04:15:57;;;;;;;;;;;;;;;-148.22;100.00;58358.63;5017308;28;1311;-89
2021/07/21 04:18:25;;;;;;;;;;;;;;;-148.22;100.00;58358.63;5017281;28;1183;-90
2021/07/21 04:21:01;;;;;;;;;;;;;;;-148.22;100.00;58358.63;5033836;28;1244;-89
2021/07/21 04:26:50;;;;;;;;;;;;;;;-148.22;100.00;58358.63;4994797;28;1102;-88
2021/07/21 04:32:34;;;;;;;;;;;;;;;-148.22;100.00;58358.63;4994559;28;618;-89
2021/07/21 04:38:35;;;;;;;;;;;;;;;-148.22;100.00;58358.63;4994555;28;1068;-89
2021/07/21 04:41:00;;;;;;;;;;;;;;;-148.22;100.00;58358.63;4978058;28;1420;-89
2021/07/21 04:49:56;;;;;;;;;;;;;;;-148.22;100.00;58358.63;4974729;28;1878;-89
2021/07/21 04:56:09;;;;;;;;;;;;;;;-148.22;100.00;58358.63;4997432;28;1127;-89
2021/07/21 04:58:59;;;;;;;;;;;;;;;-148.22;100.00;58358.63;4981548;28;1224;-90
2021/07/21 05:01:37;;;;;;;;;;;;;;;-148.22;100.00;58358.63;4981728;28;1275;-90
2021/07/21 05:04:36;;;;;;;;;;;;;;;-148.22;100.00;58358.63;5050082;28;1209;-90
2021/07/21 05:07:12;;;;;;;;;;;;;;;-148.22;100.00;58358.63;4978196;28;1350;-90
2021/07/21 05:09:59;;;;;;;;;;;;;;;-148.22;100.00;58358.63;4962156;28;1890;-90
2021/07/21 05:12:24;;;;;;;;;;;;;;;-148.22;100.00;58358.63;4976693;28;1415;-90
2021/07/21 05:15:14;;;;;;;;;;;;;;;-148.22;100.00;58358.63;4978263;28;1184;-90
2021/07/21 05:17:46;;;;;;;;;;;;;;;-148.22;100.00;58358.63;4978319;28;1181;-91
2021/07/21 05:20:31;;;;;;;;;;;;;;;-148.22;100.00;58358.63;4978222;28;1295;-89
2021/07/21 05:23:17;;;;;;;;;;;;;;;-148.22;100.00;58358.63;4977969;28;1213;-89
2021/07/21 05:25:52;;;;;;;;;;;;;;;-148.22;100.00;58358.63;4977879;28;1058;-89
2021/07/21 05:28:57;;;;;;;;;;;;;;;-148.22;100.00;58358.63;4978000;28;1316;-88
2021/07/21 05:31:38;;;;;;;;;;;;;;;-148.22;100.00;58358.63;4976193;28;1907;-89
2021/07/21 05:34:34;;;;;;;;;;;;;;;-148.22;100.00;58358.63;4961954;28;1153;-88
2021/07/21 05:37:18;;;;;;;;;;;;;;;-148.22;100.00;58358.63;4981050;28;1228;-88
2021/07/21 05:43:29;;;;;;;;;;;;;;;-148.22;100.00;58358.63;5008244;28;931;-89
2021/07/21 05:49:16;;;;;;;;;;;;;;;-148.22;100.00;58358.63;5016783;28;657;-89
2021/07/21 05:51:58;;;;;;;;;;;;;;;-148.22;100.00;58358.63;4999976;28;1364;-89
2021/07/21 05:54:42;;;;;;;;;;;;;;;-148.22;100.00;58358.63;4999995;28;1288;-90
2021/07/21 06:00:10;;;;;;;;;;;;;;;-148.22;100.00;58358.63;5016320;28;1228;-89
2021/07/21 06:02:49;;;;;;;;;;;;;;;-148.22;100.00;58358.63;5000031;28;1319;-89
2021/07/21 06:05:17;;;;;;;;;;;;;;;-148.22;100.00;58358.63;4999520;28;1156;-89
2021/07/21 06:08:14;;;;;;;;;;;;;;;-148.22;100.00;58358.63;5000022;28;1320;-89
2021/07/21 06:10:56;;;;;;;;;;;;;;;-148.22;100.00;58358.63;4999623;28;1898;-88
2021/07/21 06:13:22;;;;;;;;;;;;;;;-148.22;100.00;58358.63;5024784;28;1269;-88
2021/07/21 06:15:49;;;;;;;;;;;;;;;-148.22;100.00;58358.63;5057026;28;1203;-88
2021/07/21 06:18:35;;;;;;;;;;;;;;;-148.22;100.00;58358.63;5056770;28;1240;-89
2021/07/21 06:21:16;;;;;;;;;;;;;;;-148.22;100.00;58358.63;5056394;28;1171;-89
2021/07/21 06:23:58;;;;;;;;;;;;;;;-148.22;100.00;58358.63;5056474;28;1256;-90
2021/07/21 06:26:42;;;;;;;;;;;;;;;-148.22;100.00;58358.63;5056439;28;1219;-89
2021/07/21 06:29:18;;;;;;;;;;;;;;;-148.22;100.00;58358.63;5056265;28;1191;-89
2021/07/21 06:31:54;;;;;;;;;;;;;;;-148.22;100.00;58358.63;5056251;28;1215;-90
2021/07/21 06:37:36;;;;;;;;;;;;;;;-148.22;100.00;58358.63;5057343;28;626;-90
2021/07/21 06:40:02;;;;;;;;;;;;;;;-148.22;100.00;58358.63;5056010;28;1298;-90
2021/07/21 06:43:05;;;;;;;;;;;;;;;-148.22;100.00;58358.63;5055845;28;1625;-89
2021/07/21 06:45:57;;;;;;;;;;;;;;;-148.22;100.00;58358.63;5056186;28;1195;-90
2021/07/21 06:48:36;;;;;;;;;;;;;;;-148.22;100.00;58358.63;5055930;28;1190;-91
2021/07/21 06:51:12;;;;;;;;;;;;;;;-148.22;100.00;58358.63;5055901;28;1973;-90
2021/07/21 06:54:03;;;;;;;;;;;;;;;-148.22;100.00;58358.63;5055832;28;1154;-89
2021/07/21 06:56:38;;;;;;;;;;;;;;;-148.22;100.00;58358.63;5055772;28;1273;-87
2021/07/21 06:59:13;;;;;;;;;;;;;;;-148.22;100.00;58358.63;5055942;28;1271;-87
2021/07/21 07:04:47;;;;;;;;;;;;;;;-148.22;100.00;58358.63;5056901;28;617;-88
2021/07/21 07:07:25;;;;;;;;;;;;;;;-148.22;100.00;58358.63;5055677;28;1158;-89
2021/07/21 07:10:18;;;;;;;;;;;;;;;-148.22;100.00;58358.63;5055333;28;1881;-88
2021/07/21 07:12:44;;;;;;;;;;;;;;;-148.22;100.00;58358.63;5050157;28;1567;-90
2021/07/21 07:15:09;;;;;;;;;;;;;;;-148.22;100.00;58358.63;5055584;28;1345;-87
2021/07/21 07:20:39;;;;;;;;;;;;;;;-148.22;100.00;58358.63;5058920;28;681;-92
2021/07/21 07:29:10;;;;;;;;;;;;;;;-148.22;100.00;58358.63;5060278;28;607;-92
2021/07/21 07:32:03;;;;;;;;;;;;;;;-148.22;100.00;58358.63;5056108;28;1988;-91
2021/07/21 07:34:52;;;;;;;;;;;;;;;-148.22;100.00;58358.63;4998701;28;1529;-91
2021/07/21 07:40:20;;;;;;;;;;;;;;;-148.22;100.00;58358.63;5015911;28;1787;-95
2021/07/21 07:49:27;;;;;;;;;;;;;;;-148.22;100.00;58358.63;5014565;28;561;-93
2021/07/21 07:54:57;;;;;;;;;;;;;;;-148.22;100.00;58358.63;5016107;28;641;-95
2021/07/21 08:00:25;;;;;;;;;;;;;;;-148.22;100.00;58358.63;5028375;22;1937;-96
2021/07/21 08:02:50;;;;;;;;;;;;;;;-148.22;100.00;58358.63;5077437;28;1716;-96
2021/07/21 08:05:15;;;;;;;;;;;;;;;-148.22;100.00;58358.63;5086190;28;1368;-96
2021/07/21 08:07:41;;;;;;;;;;;;;;;-148.22;100.00;58358.63;5082163;28;1252;-96
2021/07/21 08:13:12;;;;;;;;;;;;;;;-148.22;100.00;58358.63;5088304;28;613;-96
2021/07/21 08:18:45;;;;;;;;;;;;;;;-148.22;100.00;58358.63;5081426;28;621;-96
2021/07/21 08:24:14;;;;;;;;;;;;;;;-148.22;100.00;58358.63;5080461;28;609;-95
2021/07/21 08:29:42;;;;;;;;;;;;;;;-148.22;100.00;58358.63;5080169;28;1890;-95
2021/07/21 08:35:12;;;;;;;;;;;;;;;-148.22;100.00;58358.63;5081119;28;660;-95
2021/07/21 08:40:41;;;;;;;;;;;;;;;-148.22;100.00;58358.63;5078920;28;1096;-94
2021/07/21 08:46:40;;;;;;;;;;;;;;;-148.22;100.00;58358.63;5079662;28;621;-92
2021/07/21 08:52:08;;;;;;;;;;;;;;;-148.22;100.00;58358.63;5079781;28;582;-95
2021/07/21 08:57:37;;;;;;;;;;;;;;;-148.22;100.00;58358.63;5080299;28;597;-95
2021/07/21 09:03:06;;;;;;;;;;;;;;;-148.22;100.00;58358.63;5071947;28;1066;-92
2021/07/21 09:05:31;;;;;;;;;;;;;;;-148.22;100.00;58358.63;5094815;28;1167;-92
2021/07/21 09:07:57;;;;;;;;;;;;;;;-148.22;100.00;58358.63;5094375;28;1210;-87
2021/07/21 09:10:31;;;;;;;;;;;;;;;-148.22;100.00;58358.63;5076162;28;1906;-87
2021/07/21 09:12:57;;;;;;;;;;;;;;;-148.22;100.00;58358.63;5064348;28;937;-86
2021/07/21 09:18:57;;;;;;;;;;;;;;;-148.22;100.00;58358.63;5059501;28;673;-92
2021/07/21 09:21:38;;;;;;;;;;;;;;;-148.22;100.00;58358.63;5058672;28;1275;-93
2021/07/21 09:24:34;;;;;;;;;;;;;;;-148.22;100.00;58358.63;5064120;28;1507;-94
2021/07/21 09:27:33;;;;;;;;;;;;;;;-148.22;100.00;58358.63;4997995;28;1197;-95
2021/07/21 09:30:23;;;;;;;;;;;;;;;-148.22;100.00;58358.63;4997856;28;1895;-93
2021/07/21 09:32:56;;;;;;;;;;;;;;;-148.22;100.00;58358.63;4981179;28;1427;-92
2021/07/21 09:35:40;;;;;;;;;;;;;;;-148.22;100.00;58358.63;4981115;28;1384;-92
2021/07/21 09:41:36;;;;;;;;;;;;;;;-148.22;100.00;58358.63;4976984;28;965;-90
2021/07/21 09:44:03;;;;;;;;;;;;;;;-148.22;100.00;58358.63;4961029;28;1178;-89
2021/07/21 09:46:39;;;;;;;;;;;;;;;-148.22;100.00;58358.63;4976453;28;1274;-89
2021/07/21 09:49:33;;;;;;;;;;;;;;;-148.22;100.00;58358.63;4977236;28;1600;-89
2021/07/21 09:52:18;;;;;;;;;;;;;;;-148.22;100.00;58358.63;4961355;28;1241;-89
2021/07/21 09:55:16;;;;;;;;;;;;;;;-148.22;100.00;58358.63;4961340;28;1301;-89
2021/07/21 09:58:09;;;;;;;;;;;;;;;-148.22;100.00;58358.63;4961319;28;1527;-89
2021/07/21 10:00:55;;;;;;;;;;;;;;;-148.22;100.00;58358.63;4959419;28;1261;-89
2021/07/21 10:03:22;;;;;;;;;;;;;;;-148.22;100.00;58358.63;4967224;28;1370;-89
2021/07/21 10:05:59;;;;;;;;;;;;;;;-148.22;100.00;58358.63;4961447;28;1253;-89
2021/07/21 10:08:37;;;;;;;;;;;;;;;-148.22;100.00;58358.63;4961185;28;1312;-89
2021/07/21 10:11:37;;;;;;;;;;;;;;;-148.22;100.00;58358.63;4960694;28;1899;-89
2021/07/21 10:14:18;;;;;;;;;;;;;;;-148.22;100.00;58358.63;4960858;28;1239;-89
2021/07/21 10:16:53;;;;;;;;;;;;;;;-148.22;100.00;58358.63;4960848;28;1365;-89
2021/07/21 10:19:28;;;;;;;;;;;;;;;-148.22;100.00;58358.63;5054395;28;1394;-89
2021/07/21 10:22:15;;;;;;;;;;;;;;;-148.22;100.00;58358.63;5054508;28;1341;-89
2021/07/21 10:24:43;;;;;;;;;;;;;;;-148.22;100.00;58358.63;5055687;28;1399;-89
2021/07/21 10:27:18;;;;;;;;;;;;;;;-148.22;100.00;58358.63;5055627;28;1513;-90
2021/07/21 10:29:44;;;;;;;;;;;;;;;-148.22;100.00;58358.63;5057341;28;1898;-90
2021/07/21 10:32:19;;;;;;;;;;;;;;;-148.22;100.00;58358.63;5056227;28;1277;-91
2021/07/21 10:34:46;;;;;;;;;;;;;;;-148.22;100.00;58358.63;5057550;28;953;-91
2021/07/21 10:37:31;;;;;;;;;;;;;;;-148.22;100.00;58358.63;5057366;28;882;-90
2021/07/21 10:43:07;;;;;;;;;;;;;;;-148.22;100.00;58358.63;5057214;28;610;-89
2021/07/21 10:46:05;;;;;;;;;;;;;;;-148.22;100.00;58358.63;5056142;28;1293;-89
2021/07/21 10:49:00;;;;;;;;;;;;;;;-148.22;100.00;58358.63;5056132;28;1302;-88
2021/07/21 10:51:50;;;;;;;;;;;;;;;-148.22;100.00;58358.63;5055773;28;2258;-88
2021/07/21 11:00:54;;;;;;;;;;;;;;;-148.22;100.00;58358.63;5056965;28;597;-89
2021/07/21 11:03:23;;;;;;;;;;;;;;;-148.22;100.00;58358.63;4995444;28;1393;-88
2021/07/21 11:06:13;;;;;;;;;;;;;;;-148.22;100.00;58358.63;4979622;28;1173;-88
2021/07/21 11:11:41;;;;;;;;;;;;;;;-148.22;100.00;58358.63;4998382;28;1954;-90
2021/07/21 11:14:28;;;;;;;;;;;;;;;-148.22;100.00;58358.63;4979184;28;1291;-91
2021/07/21 11:23:18;;;;;;;;;;;;;;;-148.22;100.00;58358.63;4997368;28;649;-94
2021/07/21 11:44:47;;;;;;;;;;;;;;;-148.22;100.00;58358.63;5530234;22;1978;-96
2021/07/21 11:47:14;;;;;;;;;;;;;;;-148.22;100.00;58358.63;5090013;28;1448;-96
2021/07/21 11:49:46;;;;;;;;;;;;;;;-148.22;100.00;58358.63;5080195;28;1918;-94
2021/07/21 11:55:30;;;;;;;;;;;;;;;-148.22;100.00;58358.63;5076260;28;652;-94
2021/07/21 12:00:58;;;;;;;;;;;;;;;-148.22;100.00;58358.63;5078854;28;1270;-93
2021/07/21 12:06:26;;;;;;;;;;;;;;;-148.22;100.00;58358.63;5098033;28;671;-96
2021/07/21 12:11:59;;;;;;;;;;;;;;;-148.22;100.00;58358.63;5098321;28;1898;-93
2021/07/21 12:14:50;;;;;;;;;;;;;;;-148.22;100.00;58358.63;5078460;28;1165;-95
2021/07/21 12:20:51;;;;;;;;;;;;;;;-148.22;100.00;58358.63;5033911;28;676;-92
2021/07/21 12:23:35;;;;;;;;;;;;;;;-148.22;100.00;58358.63;5034102;28;1279;-91
2021/07/21 12:26:35;;;;;;;;;;;;;;;-148.22;100.00;58358.63;5033527;28;1352;-91
2021/07/21 12:29:01;;;;;;;;;;;;;;;-148.22;100.00;58358.63;4957382;29;1366;-90
2021/07/21 12:31:42;;;;;;;;;;;;;;;-148.22;100.00;58358.63;4955753;28;1957;-90
2021/07/21 12:34:23;;;;;;;;;;;;;;;-148.22;100.00;58358.63;4955712;28;1477;-89
2021/07/21 12:37:01;;;;;;;;;;;;;;;-148.22;100.00;58358.63;4955932;28;1189;-90
2021/07/21 12:39:39;;;;;;;;;;;;;;;-148.22;100.00;58358.63;4955605;28;1322;-89
2021/07/21 12:42:33;;;;;;;;;;;;;;;-148.22;100.00;58358.63;4955694;28;1364;-89
2021/07/21 12:45:00;;;;;;;;;;;;;;;-148.22;100.00;58358.63;4955361;29;1604;-90
2021/07/21 12:50:40;;;;;;;;;;;;;;;-148.22;100.00;58358.63;4920301;29;1969;-88
2021/07/21 12:53:19;;;;;;;;;;;;;;;-148.22;100.00;58358.63;4920359;29;1354;-83
2021/07/21 12:55:48;;;;;;;;;;;;;;;-148.22;100.00;58358.63;4919968;29;1233;-86
2021/07/21 12:58:14;;;;;;;;;;;;;;;-148.22;100.00;58358.63;4920480;29;1203;-87
2021/07/21 13:00:56;;;;;;;;;;;;;;;-148.22;100.00;58358.63;4920060;29;1405;-91
2021/07/21 13:03:45;;;;;;;;;;;;;;;-148.22;100.00;58358.63;4917164;29;1397;-88
2021/07/21 13:06:37;;;;;;;;;;;;;;;-148.22;100.00;58358.63;4991112;28;1180;-87
2021/07/21 13:09:20;;;;;;;;;;;;;;;-148.22;100.00;58358.63;5009380;28;1093;-87
2021/07/21 13:11:56;;;;;;;;;;;;;;;-148.22;100.00;58358.63;5013179;28;1945;-87
2021/07/21 13:14:42;;;;;;;;;;;;;;;-148.22;100.00;58358.63;5015291;28;1406;-87
2021/07/21 13:17:08;;;;;;;;;;;;;;;-148.22;100.00;58358.63;5015715;28;1248;-89
2021/07/21 13:19:34;;;;;;;;;;;;;;;-148.22;100.00;58358.63;5000921;28;1214;-91
2021/07/21 13:22:30;;;;;;;;;;;;;;;-148.22;100.00;58358.63;5018756;28;1350;-88
2021/07/21 13:24:55;;;;;;;;;;;;;;;-148.22;100.00;58358.63;5025786;28;1764;-89
2021/07/21 13:27:45;;;;;;;;;;;;;;;-148.22;100.00;58358.63;5043526;28;1420;-88
2021/07/21 13:30:20;;;;;;;;;;;;;;;-148.22;100.00;58358.63;5080805;28;1949;-89
2021/07/21 13:32:53;;;;;;;;;;;;;;;-148.22;100.00;58358.63;5080955;28;1376;-90
2021/07/21 13:35:38;;;;;;;;;;;;;;;-148.22;100.00;58358.63;5080675;28;1434;-90
2021/07/21 13:40:56;;;;;;;;;;;;;;;-148.22;100.00;58358.63;5078382;28;1208;-90
2021/07/21 13:43:28;;;;;;;;;;;;;;;-148.22;100.00;58358.63;5036496;28;1164;-89
2021/07/21 13:45:54;;;;;;;;;;;;;;;-148.22;100.00;58358.63;5020039;28;1386;-91
2021/07/21 13:48:29;;;;;;;;;;;;;;;-148.22;100.00;58358.63;5036515;28;811;-90
2021/07/21 13:51:12;;;;;;;;;;;;;;;-148.22;100.00;58358.63;5039306;28;1989;-89
2021/07/21 13:53:40;;;;;;;;;;;;;;;-148.22;100.00;58358.63;5040626;28;1470;-89
2021/07/21 13:59:18;;;;;;;;;;;;;;;-148.22;100.00;58358.63;5056485;28;924;-89
2021/07/21 14:01:43;;;;;;;;;;;;;;;-148.22;100.00;58358.63;5055812;28;1259;-88
2021/07/21 14:04:10;;;;;;;;;;;;;;;-148.22;100.00;58358.63;5038805;28;1198;-89
2021/07/21 14:07:02;;;;;;;;;;;;;;;-148.22;100.00;58358.63;5054726;28;918;-88
2021/07/21 14:09:39;;;;;;;;;;;;;;;-148.22;100.00;58358.63;5038072;28;1196;-88
2021/07/21 14:12:21;;;;;;;;;;;;;;;-148.22;100.00;58358.63;5036573;28;1257;-91
2021/07/21 14:14:53;;;;;;;;;;;;;;;-148.22;100.00;58358.63;5054361;28;1294;-89
2021/07/21 14:17:35;;;;;;;;;;;;;;;-148.22;100.00;58358.63;5046856;28;918;-89
2021/07/21 14:20:07;;;;;;;;;;;;;;;-148.22;100.00;58358.63;5045694;28;1374;-90
2021/07/21 14:22:33;;;;;;;;;;;;;;;-148.22;100.00;58358.63;5036575;28;1245;-88
2021/07/21 14:25:24;;;;;;;;;;;;;;;-148.22;100.00;58358.63;5055297;28;1172;-89
2021/07/21 14:27:57;;;;;;;;;;;;;;;-148.22;100.00;58358.63;5055973;28;1259;-90
2021/07/21 14:30:30;;;;;;;;;;;;;;;-148.22;100.00;58358.63;5054538;28;1890;-89
2021/07/21 14:33:09;;;;;;;;;;;;;;;-148.22;100.00;58358.63;5056391;28;1168;-89
2021/07/21 14:35:40;;;;;;;;;;;;;;;-148.22;100.00;58358.63;5053148;28;1186;-89
2021/07/21 14:44:12;;;;;;;;;;;;;;;-148.22;100.00;58358.63;5045329;28;1279;-89
2021/07/21 14:46:37;;;;;;;;;;;;;;;-148.22;100.00;58358.63;5059338;28;1235;-89
2021/07/21 14:49:04;;;;;;;;;;;;;;;-148.22;100.00;58358.63;5059121;28;1321;-90
2021/07/21 14:51:35;;;;;;;;;;;;;;;-148.22;100.00;58358.63;5059376;28;1977;-90
2021/07/21 14:54:20;;;;;;;;;;;;;;;-148.22;100.00;58358.63;5075817;28;1165;-90
2021/07/21 14:57:10;;;;;;;;;;;;;;;-148.22;100.00;58358.63;5079385;28;1176;-91
2021/07/21 14:59:45;;;;;;;;;;;;;;;-148.22;100.00;58358.63;5078303;28;1231;-90
2021/07/21 15:02:36;;;;;;;;;;;;;;;-148.22;100.00;58358.63;5078943;28;1293;-91
2021/07/21 15:05:38;;;;;;;;;;;;;;;-148.22;100.00;58358.63;5079140;28;1265;-90
2021/07/21 15:08:33;;;;;;;;;;;;;;;-148.22;100.00;58358.63;5064682;28;1403;-90
2021/07/21 15:11:14;;;;;;;;;;;;;;;-148.22;100.00;58358.63;4987940;28;1878;-90
2021/07/21 15:13:44;;;;;;;;;;;;;;;-148.22;100.00;58358.63;4995573;28;1053;-90
2021/07/21 15:16:47;;;;;;;;;;;;;;;-148.22;100.00;58358.63;4979232;28;1377;-90
2021/07/21 15:19:13;;;;;;;;;;;;;;;-148.22;100.00;58358.63;4995529;28;1179;-91
2021/07/21 15:21:48;;;;;;;;;;;;;;;-148.22;100.00;58358.63;4979257;28;1200;-91
2021/07/21 15:27:16;;;;;;;;;;;;;;;-148.22;100.00;58358.63;5014877;28;1077;-91
2021/07/21 15:29:43;;;;;;;;;;;;;;;-148.22;100.00;58358.63;4998281;28;1965;-90
2021/07/21 15:32:24;;;;;;;;;;;;;;;-148.22;100.00;58358.63;4997606;28;1316;-89
2021/07/21 15:34:52;;;;;;;;;;;;;;;-148.22;100.00;58358.63;4998368;28;1292;-89
2021/07/21 15:37:18;;;;;;;;;;;;;;;-148.22;100.00;58358.63;4997984;28;1218;-90
2021/07/21 15:39:53;;;;;;;;;;;;;;;-148.22;100.00;58358.63;4997725;28;1191;-90
2021/07/21 15:42:20;;;;;;;;;;;;;;;-148.22;100.00;58358.63;4998328;28;1325;-90
2021/07/21 15:44:47;;;;;;;;;;;;;;;-148.22;100.00;58358.63;4997868;28;1211;-91
2021/07/21 15:47:21;;;;;;;;;;;;;;;-148.22;100.00;58358.63;5020882;28;1220;-90
2021/07/21 15:52:51;;;;;;;;;;;;;;;-148.22;100.00;58358.63;5058232;28;1035;-91
2021/07/21 16:01:34;;;;;;;;;;;;;;;-148.22;100.00;58358.63;5076034;28;1226;-83
2021/07/21 16:03:59;;;;;;;;;;;;;;;-148.22;100.00;58358.63;5076224;28;1063;-83
2021/07/21 16:06:27;;;;;;;;;;;;;;;-148.22;100.00;58358.63;5074509;28;1302;-83
2021/07/21 16:08:53;;;;;;;;;;;;;;;-148.22;100.00;58358.63;5074694;28;1237;-82
2021/07/21 16:11:29;;;;;;;;;;;;;;;-148.22;100.00;58358.63;5074481;28;1961;-82
2021/07/21 16:13:56;;;;;;;;;;;;;;;-148.22;100.00;58358.63;5074650;28;1267;-82
2021/07/21 16:16:23;;;;;;;;;;;;;;;-148.22;100.00;58358.63;5073716;28;849;-82
2021/07/21 16:18:48;;;;;;;;;;;;;;;-148.22;100.00;58358.63;5091426;28;1208;-83
2021/07/21 16:21:19;;;;;;;;;;;;;;;-148.22;100.00;58358.63;5090819;28;1174;-82
2021/07/21 16:23:51;;;;;;;;;;;;;;;-148.22;100.00;58358.63;5091187;28;1186;-83
2021/07/21 16:26:16;;;;;;;;;;;;;;;-148.22;100.00;58358.63;5091275;28;1174;-82
2021/07/21 16:28:43;;;;;;;;;;;;;;;-148.22;100.00;58358.63;5075600;28;996;-83
2021/07/21 16:31:09;;;;;;;;;;;;;;;-148.22;100.00;58358.63;5091210;28;1938;-83
2021/07/21 16:34:04;;;;;;;;;;;;;;;-148.22;100.00;58358.63;5091163;28;1189;-82
2021/07/21 16:36:48;;;;;;;;;;;;;;;-148.22;100.00;58358.63;5091078;28;1250;-83
2021/07/21 16:39:21;;;;;;;;;;;;;;;-148.22;100.00;58358.63;5091202;28;1216;-82
2021/07/21 16:41:54;;;;;;;;;;;;;;;-148.22;100.00;58358.63;5091152;28;1307;-82
2021/07/21 16:44:54;;;;;;;;;;;;;;;-148.22;100.00;58358.63;5090606;28;1346;-82
2021/07/21 16:47:19;;;;;;;;;;;;;;;-148.22;100.00;58358.63;4993949;28;1255;-82
2021/07/21 16:49:45;;;;;;;;;;;;;;;-148.22;100.00;58358.63;4995431;28;1965;-82
2021/07/21 16:52:13;;;;;;;;;;;;;;;-148.22;100.00;58358.63;4981718;28;1232;-82
2021/07/21 16:54:39;;;;;;;;;;;;;;;-148.22;100.00;58358.63;4980975;28;1133;-82
2021/07/21 16:57:04;;;;;;;;;;;;;;;-148.22;100.00;58358.63;4997989;28;1180;-82
2021/07/21 16:59:32;;;;;;;;;;;;;;;-148.22;100.00;58358.63;4997934;28;930;-83
2021/07/21 17:01:59;;;;;;;;;;;;;;;-148.22;100.00;58358.63;4993526;28;1191;-82
2021/07/21 17:04:25;;;;;;;;;;;;;;;-148.22;100.00;58358.63;4962019;28;1391;-82
2021/07/21 17:06:51;;;;;;;;;;;;;;;-148.22;100.00;58358.63;4962038;28;1346;-83
2021/07/21 17:09:27;;;;;;;;;;;;;;;-148.22;100.00;58358.63;4962008;28;1277;-83
2021/07/21 17:11:53;;;;;;;;;;;;;;;-148.22;100.00;58358.63;4964366;28;2316;-83
2021/07/21 17:14:27;;;;;;;;;;;;;;;-148.22;100.00;58358.63;4979135;28;1304;-83
2021/07/21 17:16:53;;;;;;;;;;;;;;;-148.22;100.00;58358.63;4981269;28;1296;-83
2021/07/21 17:19:24;;;;;;;;;;;;;;;-148.22;100.00;58358.63;4997484;28;1280;-83
2021/07/21 17:22:03;;;;;;;;;;;;;;;-148.22;100.00;58358.63;5001551;28;966;-83
2021/07/21 17:24:42;;;;;;;;;;;;;;;-148.22;100.00;58358.63;5057577;28;1205;-84